Time;durP1;ratioP1;P1;durP2;ratioP2;P2;SDS_P1;SDS_P2;PMS_P1;PMS_P2;Temp;Humidity;BMP_temperature;BMP_pressure;BME280_temperature;BME280_humidity;BME280_pressure;Samples;Min_cycle;Max_cycle;Signal;HPM_P1;HPM_P2
2021/05/30 00:00:25;;;;;;;4.15;1.87;;;;;;;7.51;94.83;92932.00;1841866;77;21012;-77
2021/05/30 00:02:52;;;;;;;1.55;1.45;;;;;;;7.54;94.73;92927.76;1841824;77;21103;-80
2021/05/30 00:05:18;;;;;;;1.87;1.45;;;;;;;7.52;94.41;92925.45;1842038;77;21048;-80
2021/05/30 00:07:45;;;;;;;1.65;1.55;;;;;;;7.48;94.26;92934.13;1841860;77;21135;-78
2021/05/30 00:10:11;;;;;;;2.15;1.72;;;;;;;7.44;94.35;92929.88;1841945;77;21565;-80
2021/05/30 00:12:38;;;;;;;1.30;1.20;;;;;;;7.39;94.58;92928.34;1842255;77;21124;-80
2021/05/30 00:15:12;;;;;;;1.37;1.17;;;;;;;7.37;94.79;92930.67;1850624;76;21032;-79
2021/05/30 00:17:39;;;;;;;1.30;1.20;;;;;;;7.35;94.58;92924.86;1875250;76;21609;-79
2021/05/30 00:20:07;;;;;;;1.10;1.00;;;;;;;7.39;94.88;92927.57;1842011;77;21033;-77
2021/05/30 00:22:35;;;;;;;1.35;1.25;;;;;;;7.43;94.95;92921.58;1841937;77;21589;-79
2021/05/30 00:25:04;;;;;;;2.22;1.32;;;;;;;7.44;94.96;92917.70;1864462;75;21266;-80
2021/05/30 00:27:32;;;;;;;1.57;1.25;;;;;;;7.44;94.95;92923.11;1852407;76;21522;-80
2021/05/30 00:30:01;;;;;;;3.45;1.10;;;;;;;7.41;94.90;92916.56;1809367;78;21092;-78
2021/05/30 00:32:28;;;;;;;1.92;1.35;;;;;;;7.36;94.99;92916.94;1810037;79;21068;-78
2021/05/30 00:34:54;;;;;;;2.15;1.77;;;;;;;7.32;95.05;92914.05;1810791;79;21167;-81
2021/05/30 00:37:21;;;;;;;2.10;1.47;;;;;;;7.32;95.13;92916.75;1812674;79;21555;-81
2021/05/30 00:39:47;;;;;;;2.72;2.10;;;;;;;7.29;95.26;92916.93;1817293;77;21035;-80
2021/05/30 00:42:14;;;;;;;3.85;1.40;;;;;;;7.28;95.38;92920.22;1799043;78;21097;-80
2021/05/30 00:44:40;;;;;;;2.92;1.32;;;;;;;7.26;95.63;92922.55;1839622;78;21107;-79
2021/05/30 00:47:08;;;;;;;3.40;1.55;;;;;;;7.27;95.74;92928.73;1834096;78;21013;-76
2021/05/30 00:49:35;;;;;;;2.70;1.37;;;;;;;7.23;95.83;92932.78;1844048;76;20953;-76
2021/05/30 00:52:05;;;;;;;1.98;1.15;;;;;;;7.22;96.01;92930.45;1835833;77;21310;-78
2021/05/30 00:54:35;;;;;;;1.40;1.22;;;;;;;7.22;96.00;92927.19;1834049;77;21099;-79
2021/05/30 00:57:07;;;;;;;1.30;1.20;;;;;;;7.22;96.03;92920.42;1844143;77;21126;-78
2021/05/30 00:59:33;;;;;;;1.50;1.40;;;;;;;7.22;95.64;92917.72;1808099;78;20946;-79
2021/05/30 01:02:01;;;;;;;1.65;1.15;;;;;;;7.25;95.41;92919.63;1830282;78;21032;-79
2021/05/30 01:04:27;;;;;;;2.60;0.82;;;;;;;7.28;95.00;92922.16;1837139;78;21099;-76
2021/05/30 01:06:57;;;;;;;2.17;1.05;;;;;;;7.28;95.08;92924.27;1835374;78;20980;-79
2021/05/30 01:09:25;;;;;;;2.15;1.25;;;;;;;7.24;95.02;92914.03;1832715;78;21056;-80
2021/05/30 01:11:54;;;;;;;1.47;1.32;;;;;;;7.20;95.04;92924.08;1839003;78;21068;-78
2021/05/30 01:14:20;;;;;;;1.15;0.98;;;;;;;7.18;95.51;92919.63;1831235;78;21618;-76
2021/05/30 01:16:49;;;;;;;2.98;1.10;;;;;;;7.19;95.68;92921.19;1837229;78;21052;-77
2021/05/30 01:19:16;;;;;;;2.65;1.07;;;;;;;7.18;95.53;92913.45;1833283;78;21653;-80
2021/05/30 01:21:45;;;;;;;1.37;1.20;;;;;;;7.18;95.25;92914.22;1834158;78;21024;-77
2021/05/30 01:24:12;;;;;;;2.33;0.90;;;;;;;7.18;95.11;92914.22;1838806;77;21112;-78
2021/05/30 01:26:40;;;;;;;1.27;0.80;;;;;;;7.20;95.13;92907.86;1831122;78;21110;-78
2021/05/30 01:29:08;;;;;;;1.00;0.90;;;;;;;7.25;95.14;92908.05;1839212;78;21053;-77
2021/05/30 01:31:35;;;;;;;1.45;1.10;;;;;;;7.26;94.81;92910.38;1833121;78;21064;-78
2021/05/30 01:34:01;;;;;;;2.10;0.80;;;;;;;7.26;94.33;92904.97;1834496;78;21083;-77
2021/05/30 01:36:28;;;;;;;0.78;0.70;;;;;;;7.26;94.19;92906.91;1836056;78;21072;-79
2021/05/30 01:38:55;;;;;;;3.35;1.15;;;;;;;7.28;94.36;92906.70;1829327;78;21075;-76
2021/05/30 01:41:22;;;;;;;0.50;0.50;;;;;;;7.30;94.43;92903.03;1848868;77;21314;-77
2021/05/30 01:43:48;;;;;;;0.80;0.60;;;;;;;7.29;94.22;92903.41;1834200;77;21080;-78
2021/05/30 01:46:15;;;;;;;1.35;0.68;;;;;;;7.24;94.25;92905.16;1834281;78;21620;-80
2021/05/30 01:48:43;;;;;;;0.70;0.70;;;;;;;7.17;94.54;92903.80;1834804;78;21068;-78
2021/05/30 01:51:10;;;;;;;1.40;1.07;;;;;;;7.10;94.72;92908.61;1831314;78;21008;-79
2021/05/30 01:58:43;;;;;;;1.65;0.90;;;;;;;7.12;95.58;92903.61;1835225;78;21106;-80
2021/05/30 02:01:12;;;;;;;1.47;1.00;;;;;;;7.11;95.53;92906.13;1866017;75;21040;-79
2021/05/30 02:03:40;;;;;;;1.10;1.00;;;;;;;7.09;95.54;92904.95;1840561;77;21628;-77
2021/05/30 02:06:06;;;;;;;2.42;0.60;;;;;;;7.04;95.62;92907.47;1840762;77;21052;-81
2021/05/30 02:08:33;;;;;;;1.02;0.65;;;;;;;7.03;95.70;92904.55;1841070;77;21081;-81
2021/05/30 02:10:59;;;;;;;1.32;0.90;;;;;;;7.03;95.43;92908.05;1841025;77;21464;-79
2021/05/30 02:13:26;;;;;;;1.30;0.65;;;;;;;7.05;95.40;92907.07;1867948;76;21004;-78
2021/05/30 02:15:52;;;;;;;2.02;0.70;;;;;;;7.10;95.06;92909.20;1875610;76;21163;-79
2021/05/30 02:18:19;;;;;;;0.57;0.40;;;;;;;7.10;95.00;92909.20;1841752;77;21020;-80
2021/05/30 02:20:45;;;;;;;0.72;0.70;;;;;;;7.10;95.07;92909.20;1842064;77;21099;-77
2021/05/30 02:23:13;;;;;;;1.22;0.80;;;;;;;7.06;95.09;92905.91;1841326;77;21620;-80
2021/05/30 02:25:41;;;;;;;1.55;0.60;;;;;;;7.06;95.30;92903.78;1871490;74;21008;-80
2021/05/30 02:28:07;;;;;;;1.17;1.07;;;;;;;7.05;95.29;92901.66;1871732;76;21115;-79
2021/05/30 02:30:34;;;;;;;0.60;0.60;;;;;;;7.06;95.14;92907.84;1842374;77;21294;-79
2021/05/30 02:33:03;;;;;;;0.70;0.70;;;;;;;7.04;95.06;92910.17;1841560;77;21618;-80
2021/05/30 02:35:29;;;;;;;0.62;0.62;;;;;;;7.05;95.40;92909.77;1885104;76;21062;-80
2021/05/30 02:37:55;;;;;;;1.75;0.60;;;;;;;7.06;95.38;92918.66;1857342;76;21668;-79
2021/05/30 02:40:22;;;;;;;0.40;0.40;;;;;;;7.04;95.31;92915.58;1842397;77;21060;-78
2021/05/30 02:42:49;;;;;;;0.47;0.47;;;;;;;7.01;95.23;92915.76;1842377;77;21720;-80
2021/05/30 02:45:15;;;;;;;2.55;0.60;;;;;;;7.00;95.25;92922.33;1842282;77;21076;-79
2021/05/30 02:47:42;;;;;;;0.40;0.40;;;;;;;6.99;95.19;92908.59;1889398;74;21168;-79
2021/05/30 02:50:09;;;;;;;0.57;0.57;;;;;;;6.98;95.32;92917.10;1853943;76;21636;-80
2021/05/30 02:52:36;;;;;;;0.60;0.47;;;;;;;6.94;94.94;92913.04;1866436;74;21528;-80
2021/05/30 02:55:03;;;;;;;0.40;0.40;;;;;;;6.94;95.21;92916.33;1889564;75;21516;-80
2021/05/30 02:57:30;;;;;;;0.47;0.40;;;;;;;6.91;94.86;92918.44;1887511;76;21481;-80
2021/05/30 02:59:57;;;;;;;0.42;0.37;;;;;;;6.86;94.51;92920.95;1842177;77;21123;-81
2021/05/30 03:02:23;;;;;;;1.60;0.50;;;;;;;6.82;94.48;92918.81;1842323;77;21014;-79
2021/05/30 03:04:51;;;;;;;2.15;0.60;;;;;;;6.80;94.20;92927.30;1841094;77;21023;-80
2021/05/30 03:07:17;;;;;;;0.50;0.42;;;;;;;6.79;94.26;92933.09;1842740;77;21008;-79
2021/05/30 03:09:43;;;;;;;0.30;0.30;;;;;;;6.77;94.39;92931.33;1847744;76;21599;-81
2021/05/30 03:12:11;;;;;;;0.90;0.30;;;;;;;6.73;94.42;92934.05;1889714;76;21091;-80
2021/05/30 03:14:38;;;;;;;3.72;0.40;;;;;;;6.71;94.50;92934.23;1847319;76;21040;-79
2021/05/30 03:17:04;;;;;;;2.15;0.35;;;;;;;6.69;94.69;92934.59;1842105;77;21716;-80
2021/05/30 03:19:30;;;;;;;2.55;0.33;;;;;;;6.70;94.55;92938.09;1842009;77;21056;-80
2021/05/30 03:21:58;;;;;;;0.50;0.50;;;;;;;6.68;94.39;92934.41;1850154;76;21514;-79
2021/05/30 03:24:24;;;;;;;0.50;0.50;;;;;;;6.65;94.28;92931.11;1889140;76;21055;-78
2021/05/30 03:26:51;;;;;;;1.60;1.10;;;;;;;6.63;94.35;92936.14;1889639;75;21570;-78
2021/05/30 03:29:18;;;;;;;0.20;0.20;;;;;;;6.65;94.06;92935.75;1889814;75;21095;-79
2021/05/30 03:31:44;;;;;;;0.53;0.40;;;;;;;6.61;92.81;92924.93;1889158;76;21055;-78
2021/05/30 03:34:10;;;;;;;0.30;0.30;;;;;;;6.60;92.75;92927.44;1878901;76;21645;-78
2021/05/30 03:36:38;;;;;;;0.20;0.20;;;;;;;6.56;92.81;92928.78;1841031;77;21040;-79
2021/05/30 03:39:07;;;;;;;0.37;0.30;;;;;;;6.52;92.91;92938.03;1841393;77;21538;-77
2021/05/30 03:41:41;;;;;;;0.72;0.30;;;;;;;6.48;92.18;92935.90;1842445;77;21009;-77
2021/05/30 03:44:07;;;;;;;0.20;0.10;;;;;;;6.44;92.14;92939.94;1869805;76;20999;-78
2021/05/30 03:46:34;;;;;;;0.20;0.20;;;;;;;6.41;91.12;92940.69;1889433;76;21064;-78
2021/05/30 03:49:00;;;;;;;0.30;0.30;;;;;;;6.34;90.73;92942.01;1884056;76;21040;-79
2021/05/30 03:51:27;;;;;;;0.25;0.20;;;;;;;6.27;91.05;92945.44;1841963;77;21045;-77
2021/05/30 03:53:53;;;;;;;0.17;0.10;;;;;;;6.22;91.11;92945.05;1842419;77;21079;-79
2021/05/30 03:56:20;;;;;;;0.85;0.20;;;;;;;6.17;90.07;92946.19;1841972;77;21673;-77
2021/05/30 03:58:46;;;;;;;1.00;0.30;;;;;;;6.13;90.52;92949.45;1842855;77;21400;-77
2021/05/30 04:01:12;;;;;;;0.75;0.75;;;;;;;6.13;90.77;92954.84;1841461;77;21000;-79
2021/05/30 04:03:39;;;;;;;0.72;0.23;;;;;;;6.10;90.98;92950.78;1841481;77;21111;-79
2021/05/30 04:06:05;;;;;;;0.13;0.00;;;;;;;6.09;91.09;92952.67;1841908;77;20977;-79
2021/05/30 04:08:32;;;;;;;0.57;0.10;;;;;;;6.08;91.33;92951.91;1841510;77;21498;-77
2021/05/30 04:10:59;;;;;;;0.20;0.08;;;;;;;6.09;91.31;92954.03;1841530;77;21571;-78
2021/05/30 04:13:25;;;;;;;0.20;0.20;;;;;;;6.11;90.89;92954.44;1840875;77;21119;-79
2021/05/30 04:15:53;;;;;;;0.00;0.00;;;;;;;6.14;90.62;92955.61;1841756;77;21065;-78
2021/05/30 04:18:23;;;;;;;0.50;0.10;;;;;;;6.15;90.14;92950.41;1811763;79;21055;-80
2021/05/30 04:20:50;;;;;;;0.10;0.10;;;;;;;6.13;90.06;92950.80;1809601;79;21064;-79
2021/05/30 04:23:17;;;;;;;0.05;0.05;;;;;;;6.14;90.19;92952.34;1825382;76;21016;-80
2021/05/30 04:25:43;;;;;;;0.10;0.10;;;;;;;6.14;90.71;92960.44;1890055;75;21107;-80
2021/05/30 04:28:10;;;;;;;0.40;0.10;;;;;;;6.15;91.02;92954.45;1882204;75;21754;-82
2021/05/30 04:30:37;;;;;;;0.20;0.15;;;;;;;6.15;91.18;92956.58;1809672;79;21005;-82
2021/05/30 04:33:04;;;;;;;2.65;1.30;;;;;;;6.14;91.35;92964.48;1810272;79;20997;-79
2021/05/30 04:35:30;;;;;;;0.90;0.90;;;;;;;6.13;91.57;92957.55;1809529;79;21501;-81
2021/05/30 04:37:57;;;;;;;0.35;0.35;;;;;;;6.13;91.90;92959.45;1809558;79;21048;-80
2021/05/30 04:40:24;;;;;;;2.75;0.50;;;;;;;6.14;92.09;92959.66;1809192;79;21133;-80
2021/05/30 04:42:52;;;;;;;0.68;0.23;;;;;;;6.16;92.15;92962.16;1809682;79;21014;-80
2021/05/30 04:45:20;;;;;;;0.40;0.40;;;;;;;6.17;92.15;92962.94;1809550;79;21606;-80
2021/05/30 04:47:48;;;;;;;0.37;0.37;;;;;;;6.17;92.01;92959.69;1810003;79;21065;-81
2021/05/30 04:50:15;;;;;;;0.72;0.45;;;;;;;6.20;91.95;92964.88;1809079;79;20966;-80
2021/05/30 04:52:42;;;;;;;0.20;0.20;;;;;;;6.17;91.72;92960.23;1816453;77;21017;-81
2021/05/30 04:55:14;;;;;;;0.75;0.23;;;;;;;6.13;91.31;92960.24;1845787;77;21111;-80
2021/05/30 04:57:40;;;;;;;0.68;0.10;;;;;;;6.07;90.89;92965.21;1829963;77;21045;-80
2021/05/30 05:00:10;;;;;;;2.45;0.37;;;;;;;6.07;91.41;92971.19;1830153;78;21103;-79
2021/05/30 05:02:37;;;;;;;0.33;0.30;;;;;;;6.06;91.47;92967.72;1864981;76;21086;-82
2021/05/30 05:05:05;;;;;;;1.45;0.15;;;;;;;6.03;91.62;92972.52;1888792;76;21067;-82
2021/05/30 05:07:31;;;;;;;0.10;0.10;;;;;;;6.00;91.59;92970.56;1881306;76;21263;-81
2021/05/30 05:09:58;;;;;;;0.60;0.42;;;;;;;6.02;92.01;92971.55;1841334;77;21706;-81
2021/05/30 05:12:24;;;;;;;0.42;0.40;;;;;;;6.03;92.01;92969.82;1842239;77;21618;-78
2021/05/30 05:14:52;;;;;;;0.30;0.30;;;;;;;6.04;91.81;92972.71;1876481;76;21102;-79
2021/05/30 05:17:18;;;;;;;1.42;1.10;;;;;;;6.04;91.81;92970.01;1868997;76;21075;-80
2021/05/30 05:19:44;;;;;;;1.85;1.45;;;;;;;6.02;91.58;92965.58;1841656;77;21107;-80
2021/05/30 05:22:11;;;;;;;0.82;0.80;;;;;;;6.05;91.71;92966.15;1840949;77;21084;-81
2021/05/30 05:24:38;;;;;;;1.55;0.60;;;;;;;6.06;91.56;92974.47;1840319;77;21167;-79
2021/05/30 05:27:08;;;;;;;0.30;0.25;;;;;;;6.01;91.26;92972.11;1874188;74;21110;-81
2021/05/30 05:29:35;;;;;;;0.40;0.40;;;;;;;6.00;91.66;92973.27;1886370;76;21076;-79
2021/05/30 05:32:02;;;;;;;1.00;0.85;;;;;;;5.98;91.42;92975.58;1871521;76;21068;-80
2021/05/30 05:34:29;;;;;;;1.65;0.85;;;;;;;5.98;91.79;92973.43;1817448;76;21400;-80
2021/05/30 05:36:56;;;;;;;2.42;1.00;;;;;;;6.00;92.25;92971.91;1887948;76;21087;-81
2021/05/30 05:39:24;;;;;;;1.57;0.95;;;;;;;6.04;92.31;92974.05;1852092;76;21060;-80
2021/05/30 05:41:52;;;;;;;1.70;1.60;;;;;;;6.11;92.64;92973.33;1839661;77;21068;-80
2021/05/30 05:44:18;;;;;;;1.32;1.22;;;;;;;6.16;92.71;92975.66;1838790;77;21064;-79
2021/05/30 05:46:45;;;;;;;1.60;1.30;;;;;;;6.24;93.23;92977.27;1839140;77;21721;-83
2021/05/30 05:49:11;;;;;;;1.75;1.65;;;;;;;6.29;93.39;92972.08;1838947;77;21634;-80
2021/05/30 05:51:38;;;;;;;0.82;0.78;;;;;;;6.31;93.55;92973.23;1840238;77;21100;-81
2021/05/30 05:54:04;;;;;;;0.85;0.40;;;;;;;6.37;93.60;92982.34;1872278;76;21619;-80
2021/05/30 05:56:31;;;;;;;0.70;0.42;;;;;;;6.42;92.96;92982.73;1867308;76;21546;-82
2021/05/30 05:58:57;;;;;;;0.55;0.55;;;;;;;6.49;92.54;92988.17;1841582;77;21626;-80
2021/05/30 06:01:24;;;;;;;2.92;1.05;;;;;;;6.52;92.14;92984.72;1841445;77;20989;-79
2021/05/30 06:03:50;;;;;;;0.90;0.60;;;;;;;6.55;91.94;92988.02;1889634;74;21268;-82
2021/05/30 06:06:17;;;;;;;0.65;0.65;;;;;;;6.61;91.77;92988.41;1854560;76;21039;-79
2021/05/30 06:08:44;;;;;;;0.65;0.50;;;;;;;6.63;91.67;92984.77;1841328;77;21043;-79
2021/05/30 06:11:10;;;;;;;0.62;0.47;;;;;;;6.64;91.54;92981.48;1840781;77;21059;-81
2021/05/30 06:13:37;;;;;;;0.68;0.50;;;;;;;6.63;91.37;92989.41;1841452;77;21131;-81
2021/05/30 06:16:06;;;;;;;0.78;0.60;;;;;;;6.61;91.57;92988.41;1840245;77;21692;-81
2021/05/30 06:18:33;;;;;;;2.25;0.90;;;;;;;6.60;91.14;92996.91;1879643;74;21083;-81
2021/05/30 06:21:00;;;;;;;1.37;1.02;;;;;;;6.56;91.25;92990.91;1860946;76;21315;-81
2021/05/30 06:23:27;;;;;;;0.80;0.80;;;;;;;6.56;91.49;92992.84;1841466;77;21059;-80
2021/05/30 06:25:53;;;;;;;2.62;0.68;;;;;;;6.59;91.46;92989.97;1845363;74;21076;-79
2021/05/30 06:28:19;;;;;;;0.60;0.50;;;;;;;6.60;91.45;92995.56;1889414;76;21580;-83
2021/05/30 06:30:47;;;;;;;0.75;0.70;;;;;;;6.56;91.26;92998.25;1847347;76;21420;-82
2021/05/30 06:33:14;;;;;;;0.30;0.20;;;;;;;6.54;91.36;93004.59;1841857;77;21492;-79
2021/05/30 06:35:41;;;;;;;0.15;0.15;;;;;;;6.51;91.13;93008.84;1813986;77;21179;-78
2021/05/30 06:38:08;;;;;;;0.33;0.33;;;;;;;6.50;91.16;93014.61;1832649;78;21160;-79
2021/05/30 06:40:35;;;;;;;0.20;0.20;;;;;;;6.50;91.08;93011.91;1808682;79;21053;-80
2021/05/30 06:43:01;;;;;;;0.20;0.20;;;;;;;6.51;91.26;93012.89;1882248;75;21122;-80
2021/05/30 06:45:30;;;;;;;0.10;0.10;;;;;;;6.56;91.20;93010.41;1852999;76;21376;-83
2021/05/30 06:47:56;;;;;;;1.12;0.13;;;;;;;6.61;91.11;93013.31;1839651;77;21072;-79
2021/05/30 06:50:24;;;;;;;0.20;0.20;;;;;;;6.62;90.94;93008.09;1839297;77;21087;-81
2021/05/30 06:52:51;;;;;;;1.12;0.57;;;;;;;6.61;90.96;93007.91;1840574;77;21084;-80
2021/05/30 06:55:22;;;;;;;0.85;0.85;;;;;;;6.61;90.79;93016.02;1839858;77;21083;-79
2021/05/30 06:57:49;;;;;;;1.52;1.42;;;;;;;6.57;91.13;93008.66;1839819;77;21068;-82
2021/05/30 07:00:17;;;;;;;1.00;1.00;;;;;;;6.59;91.84;93019.69;1839932;77;21127;-79
2021/05/30 07:02:44;;;;;;;2.72;0.57;;;;;;;6.60;91.82;93014.47;1857223;74;21829;-83
2021/05/30 07:05:11;;;;;;;0.40;0.40;;;;;;;6.62;91.46;93021.60;1883092;76;21106;-81
2021/05/30 07:07:39;;;;;;;1.82;1.47;;;;;;;6.62;90.85;93021.05;1840242;77;21068;-79
2021/05/30 07:10:07;;;;;;;1.20;1.10;;;;;;;6.65;90.50;93023.55;1839125;77;21080;-79
2021/05/30 07:12:36;;;;;;;3.30;1.20;;;;;;;6.68;90.69;93020.87;1840179;77;21060;-81
2021/05/30 07:15:05;;;;;;;1.10;0.80;;;;;;;6.70;90.64;93024.56;1861012;76;21793;-79
2021/05/30 07:17:37;;;;;;;2.15;0.90;;;;;;;6.67;90.10;93028.02;1877261;76;20977;-81
2021/05/30 07:20:04;;;;;;;1.42;0.80;;;;;;;6.65;90.42;93027.61;1844360;75;21086;-81
2021/05/30 07:22:33;;;;;;;1.10;1.00;;;;;;;6.64;90.91;93030.12;1888492;76;21071;-81
2021/05/30 07:24:59;;;;;;;2.00;1.77;;;;;;;6.65;91.23;93030.31;1849675;76;22111;-78
2021/05/30 07:27:26;;;;;;;2.27;1.50;;;;;;;6.66;91.50;93029.95;1867534;75;21639;-81
2021/05/30 07:29:52;;;;;;;1.12;1.10;;;;;;;6.73;91.92;93036.73;1871556;75;21083;-81
2021/05/30 07:32:18;;;;;;;0.90;0.82;;;;;;;6.78;91.86;93034.23;1839833;77;21045;-78
2021/05/30 07:34:44;;;;;;;1.30;1.20;;;;;;;6.82;91.83;93040.43;1840478;77;21282;-79
2021/05/30 07:37:13;;;;;;;2.52;1.50;;;;;;;6.85;91.92;93041.03;1840915;77;21052;-79
2021/05/30 07:39:39;;;;;;;1.87;1.40;;;;;;;6.88;92.10;93044.88;1840849;77;21142;-79
2021/05/30 07:42:06;;;;;;;4.35;1.75;;;;;;;6.90;92.13;93033.89;1859992;75;21297;-78
2021/05/30 07:44:33;;;;;;;5.45;0.80;;;;;;;6.96;92.63;93040.48;1883980;76;21844;-79
2021/05/30 07:46:59;;;;;;;1.85;0.75;;;;;;;7.03;92.72;93037.02;1841052;77;21095;-82
2021/05/30 07:49:26;;;;;;;0.70;0.70;;;;;;;7.11;91.97;93031.84;1840212;77;21127;-79
2021/05/30 07:51:53;;;;;;;0.45;0.45;;;;;;;7.18;91.14;93028.37;1873789;76;21759;-81
2021/05/30 07:54:22;;;;;;;1.15;0.98;;;;;;;7.26;91.24;93034.02;1864495;76;21051;-80
2021/05/30 07:56:49;;;;;;;0.50;0.50;;;;;;;7.30;91.36;93034.21;1838209;77;22198;-77
2021/05/30 07:59:16;;;;;;;0.95;0.90;;;;;;;7.33;90.95;93035.36;1837124;77;21091;-79
2021/05/30 08:01:43;;;;;;;1.75;1.00;;;;;;;7.36;90.71;93037.30;1838824;77;21290;-78
2021/05/30 08:04:09;;;;;;;1.10;1.00;;;;;;;7.38;90.73;93040.41;1837800;77;21675;-79
2021/05/30 08:06:35;;;;;;;1.50;0.90;;;;;;;7.40;91.03;93046.19;1863904;75;21048;-78
2021/05/30 08:09:02;;;;;;;2.02;0.93;;;;;;;7.40;91.53;93046.19;1875473;76;21056;-82
2021/05/30 08:11:29;;;;;;;0.90;0.90;;;;;;;7.40;91.65;93050.25;1841673;77;21056;-80
2021/05/30 08:13:57;;;;;;;1.75;1.50;;;;;;;7.41;91.53;93052.38;1839494;77;21639;-79
2021/05/30 08:16:24;;;;;;;0.98;0.93;;;;;;;7.42;91.73;93050.66;1879422;74;21473;-77
2021/05/30 08:18:52;;;;;;;1.20;1.12;;;;;;;7.43;91.73;93049.48;1858068;76;21076;-79
2021/05/30 08:21:20;;;;;;;1.80;1.57;;;;;;;7.44;91.39;93041.56;1858669;76;21059;-78
2021/05/30 08:23:49;;;;;;;1.52;1.30;;;;;;;7.50;91.05;93052.20;1880625;76;21752;-82
2021/05/30 08:26:16;;;;;;;1.37;1.27;;;;;;;7.55;90.09;93047.77;1840088;77;21072;-78
2021/05/30 08:28:43;;;;;;;1.60;1.50;;;;;;;7.60;89.52;93052.59;1841414;77;21083;-80
2021/05/30 08:31:09;;;;;;;1.55;1.45;;;;;;;7.60;89.50;93053.95;1841814;77;21060;-79
2021/05/30 08:33:36;;;;;;;1.12;1.05;;;;;;;7.59;89.86;93057.23;1842471;77;20948;-83
2021/05/30 08:36:03;;;;;;;1.50;1.40;;;;;;;7.60;89.67;93058.81;1853959;76;21044;-79
2021/05/30 08:38:32;;;;;;;0.80;0.80;;;;;;;7.61;89.25;93064.41;1888513;76;21047;-78
2021/05/30 08:40:58;;;;;;;1.50;1.40;;;;;;;7.64;89.12;93066.34;1808506;79;21195;-78
2021/05/30 08:43:26;;;;;;;1.37;1.25;;;;;;;7.63;87.74;93063.42;1801611;79;21124;-81
2021/05/30 08:45:54;;;;;;;0.80;0.72;;;;;;;7.58;87.39;93066.52;1823393;77;20956;-81
2021/05/30 08:48:20;;;;;;;1.40;1.07;;;;;;;7.56;87.98;93064.80;1843060;77;21055;-82
2021/05/30 08:51:08;;;;;;;1.92;0.88;;;;;;;7.55;87.64;93069.98;1843769;76;21035;-79
2021/05/30 08:53:34;;;;;;;0.47;0.47;;;;;;;7.52;87.84;93064.79;1807823;78;21080;-79
2021/05/30 08:56:01;;;;;;;1.25;1.17;;;;;;;7.51;86.83;93071.34;1807784;79;21108;-79
2021/05/30 08:58:45;;;;;;;0.95;0.90;;;;;;;7.47;87.40;93069.20;1808460;79;20993;-83
2021/05/30 09:01:19;;;;;;;1.00;0.90;;;;;;;7.45;87.85;93066.13;1810644;79;21028;-79
2021/05/30 09:04:07;;;;;;;2.17;0.90;;;;;;;7.43;88.40;93061.66;1810175;79;21111;-77
2021/05/30 09:06:37;;;;;;;0.50;0.50;;;;;;;7.47;88.96;93067.84;1809539;79;21570;-79
2021/05/30 09:09:09;;;;;;;1.75;1.60;;;;;;;7.58;88.45;93058.41;1808832;79;21793;-83
2021/05/30 09:11:39;;;;;;;1.15;1.12;;;;;;;7.63;87.66;93066.72;1808823;79;21662;-81
2021/05/30 09:14:10;;;;;;;2.60;2.05;;;;;;;7.66;87.97;93065.95;1805129;79;21712;-77
2021/05/30 09:17:02;;;;;;;2.00;1.80;;;;;;;7.70;88.31;93061.31;1836480;77;21626;-79
2021/05/30 09:19:45;;;;;;;1.10;1.00;;;;;;;7.73;87.88;93064.03;1787390;78;21083;-79
2021/05/30 09:22:39;;;;;;;1.12;0.95;;;;;;;7.79;87.46;93059.79;1855126;74;21051;-78
2021/05/30 09:25:21;;;;;;;1.57;1.47;;;;;;;7.87;87.81;93068.69;1892136;74;21515;-76
2021/05/30 09:27:54;;;;;;;1.70;1.60;;;;;;;7.94;87.70;93063.28;1870484;76;21065;-79
2021/05/30 09:30:30;;;;;;;2.90;1.60;;;;;;;7.99;87.93;93065.59;1840994;77;21083;-81
2021/05/30 09:33:10;;;;;;;4.28;1.40;;;;;;;8.04;88.84;93059.78;1840630;77;21072;-80
2021/05/30 09:35:43;;;;;;;1.52;1.42;;;;;;;8.13;89.37;93058.64;1837412;77;21071;-81
2021/05/30 09:38:25;;;;;;;1.02;1.02;;;;;;;8.21;89.75;93062.30;1810896;76;21373;-82
2021/05/30 09:40:55;;;;;;;1.32;1.20;;;;;;;8.30;89.77;93061.89;1809303;79;21036;-79
2021/05/30 09:43:28;;;;;;;2.45;1.37;;;;;;;8.38;87.74;93056.69;1808668;79;21071;-81
2021/05/30 09:46:21;;;;;;;1.98;1.77;;;;;;;8.47;88.10;93062.48;1840579;76;21094;-78
2021/05/30 09:48:56;;;;;;;2.05;1.80;;;;;;;8.61;88.38;93062.25;1873223;76;21063;-79
2021/05/30 09:51:39;;;;;;;2.02;1.82;;;;;;;8.80;88.84;93061.05;1849923;74;21047;-78
2021/05/30 09:54:15;;;;;;;3.17;1.12;;;;;;;8.96;87.07;93059.45;1888486;76;21028;-80
2021/05/30 09:56:47;;;;;;;1.82;1.55;;;;;;;9.09;87.00;93060.37;1841445;76;21040;-80
2021/05/30 09:59:26;;;;;;;2.55;2.10;;;;;;;9.16;86.72;93057.04;1869754;74;21089;-79
2021/05/30 10:02:01;;;;;;;2.67;2.10;;;;;;;9.19;86.67;93064.98;1757205;77;21104;-80
2021/05/30 10:04:34;;;;;;;2.12;1.92;;;;;;;9.19;86.29;93060.91;1845968;75;21051;-82
2021/05/30 10:07:04;;;;;;;1.27;1.20;;;;;;;9.18;85.51;93062.86;1869627;76;21104;-80
2021/05/30 10:09:33;;;;;;;3.45;1.50;;;;;;;9.20;85.87;93051.59;1839802;77;21060;-78
2021/05/30 10:12:00;;;;;;;1.30;1.20;;;;;;;9.25;85.24;93056.60;1840556;77;21047;-81
2021/05/30 10:14:27;;;;;;;1.30;1.20;;;;;;;9.34;86.73;93056.20;1842619;77;21052;-80
2021/05/30 10:16:54;;;;;;;1.32;1.17;;;;;;;9.45;86.60;93063.11;1875586;74;21638;-81
2021/05/30 10:19:43;;;;;;;1.02;0.80;;;;;;;9.54;85.54;93065.37;1864736;76;21048;-80
2021/05/30 10:22:09;;;;;;;1.42;1.20;;;;;;;9.61;83.63;93067.28;1840693;77;21900;-80
2021/05/30 10:24:40;;;;;;;1.10;1.00;;;;;;;9.59;83.44;93069.05;1840467;77;21159;-79
2021/05/30 10:29:39;;;;;;;2.10;0.78;;;;;;;9.60;84.44;93073.89;1880385;76;21020;-78
2021/05/30 10:32:17;;;;;;;1.00;1.00;;;;;;;9.59;83.77;93071.77;1822763;76;21263;-79
2021/05/30 10:35:24;;;;;;;1.40;1.30;;;;;;;9.55;83.44;93076.41;1833981;77;21079;-78
2021/05/30 10:37:54;;;;;;;2.00;1.80;;;;;;;9.54;83.66;93072.75;1838345;77;21843;-81
2021/05/30 10:40:26;;;;;;;2.05;1.85;;;;;;;9.55;84.62;93077.00;1858451;76;21041;-78
2021/05/30 10:43:13;;;;;;;1.05;1.05;;;;;;;9.57;84.44;93078.75;1890096;74;21117;-77
2021/05/30 10:45:53;;;;;;;2.00;1.80;;;;;;;9.57;84.54;93080.87;1882105;76;21468;-80
2021/05/30 10:48:20;;;;;;;0.88;0.88;;;;;;;9.57;83.35;93079.52;1842271;77;21048;-80
2021/05/30 10:53:46;;;;;;;0.42;0.42;;;;;;;9.61;84.30;93086.28;1885598;74;21087;-79
2021/05/30 10:56:17;;;;;;;1.70;1.50;;;;;;;9.64;84.50;93086.27;1853918;76;21044;-78
2021/05/30 10:58:44;;;;;;;10.30;3.60;;;;;;;9.67;84.22;93084.12;1838879;76;21044;-77
2021/05/30 11:01:47;;;;;;;0.72;0.55;;;;;;;9.69;83.59;93083.71;1874543;75;21024;-82
2021/05/30 11:04:28;;;;;;;0.30;0.30;;;;;;;9.70;82.95;93090.12;1855840;76;21102;-80
2021/05/30 11:07:20;;;;;;;0.82;0.70;;;;;;;9.71;82.27;93084.10;1888996;74;21002;-76
2021/05/30 11:10:01;;;;;;;1.25;1.12;;;;;;;9.72;80.71;93089.71;1887791;75;21194;-81
2021/05/30 11:12:35;;;;;;;1.62;0.88;;;;;;;9.74;81.63;93088.71;1889291;76;21034;-77
2021/05/30 11:15:18;;;;;;;0.70;0.68;;;;;;;9.79;82.08;93091.03;1805693;79;21059;-79
2021/05/30 11:17:56;;;;;;;0.90;0.85;;;;;;;9.85;80.79;93092.14;1883086;75;21782;-80
2021/05/30 11:20:38;;;;;;;0.30;0.30;;;;;;;9.82;78.69;93095.67;1887968;76;21616;-80
2021/05/30 11:23:15;;;;;;;0.90;0.50;;;;;;;9.76;78.32;93093.77;1845340;76;21107;-78
2021/05/30 11:25:48;;;;;;;0.33;0.33;;;;;;;9.68;78.74;93097.11;1822767;77;21103;-79
2021/05/30 11:28:18;;;;;;;0.60;0.60;;;;;;;9.64;80.43;93091.70;1819912;77;20927;-80
2021/05/30 11:31:01;;;;;;;0.28;0.28;;;;;;;9.66;80.47;93091.29;1800276;77;21678;-83
2021/05/30 11:33:40;;;;;;;0.65;0.50;;;;;;;9.69;80.30;93095.93;1798866;78;21027;-81
2021/05/30 11:36:06;;;;;;;1.45;1.22;;;;;;;9.72;80.23;93095.14;1805732;78;21059;-80
2021/05/30 11:38:40;;;;;;;0.95;0.80;;;;;;;9.74;80.22;93092.78;1872221;76;21062;-77
2021/05/30 11:41:27;;;;;;;2.60;1.75;;;;;;;9.73;79.19;93092.02;1834927;76;21679;-78
2021/05/30 11:44:05;;;;;;;2.98;2.67;;;;;;;9.72;79.78;93098.62;1804302;76;21096;-80
2021/05/30 11:46:38;;;;;;;1.10;1.00;;;;;;;9.75;80.13;93098.42;1781748;78;21113;-78
2021/05/30 11:49:12;;;;;;;0.85;0.53;;;;;;;9.79;80.39;93099.77;1846788;76;21231;-79
2021/05/30 11:51:43;;;;;;;0.30;0.30;;;;;;;9.84;80.84;93100.69;1794121;78;21152;-78
2021/05/30 11:54:09;;;;;;;0.47;0.47;;;;;;;9.86;80.75;93097.77;1860230;76;21043;-80
2021/05/30 11:56:43;;;;;;;0.50;0.50;;;;;;;9.88;79.73;93101.44;1822820;76;21061;-79
2021/05/30 11:59:10;;;;;;;0.53;0.53;;;;;;;9.87;78.56;93103.39;1807791;79;21037;-81
2021/05/30 12:01:49;;;;;;;0.85;0.53;;;;;;;9.86;78.80;93101.84;1806052;79;21088;-80